This is the latest recevied weather packets stored in our database for station/object W4BOD. If no packets are shown the sender has not sent any weather packets the latest 10 day(s).
| Time | Temp. | Humidity | Pressure | Rain* | Wind** | Luminosity | Snow |
|---|---|---|---|---|---|---|---|
| 1788030543 | 35.56° C | 38% | 1019.1 hPa | 0 mm | - | 768 W/m² | - |
| 1788030239 | 35.56° C | 40% | 1019.2 hPa | 0 mm | - | 778 W/m² | - |
| 1788029933 | 36.11° C | 40% | 1019.3 hPa | 0 mm | - | 790 W/m² | - |
| 1788029629 | 36.11° C | 41% | 1019.3 hPa | 0 mm | - | 801 W/m² | - |
| 1788029324 | 36.11° C | 41% | 1019.3 hPa | 0 mm | - | 800 W/m² | - |
| 1788029023 | 36.11° C | 40% | 1019.6 hPa | 0 mm | - | 837 W/m² | - |
| 1788028722 | 35.56° C | 40% | 1019.4 hPa | 0 mm | - | 830 W/m² | - |
| 1788028417 | 33.89° C | 50% | 1019.4 hPa | 0 mm | - | 828 W/m² | - |
| 1788028112 | 33.89° C | 52% | 1019.3 hPa | 0 mm | - | 832 W/m² | - |
| 1788027807 | 33.89° C | 54% | 1019.6 hPa | 0 mm | - | 842 W/m² | - |
| 1788027507 | 33.89° C | 53% | 1019.6 hPa | 0 mm | - | 849 W/m² | - |
| 1788027202 | 34.44° C | 52% | 1019.7 hPa | 0 mm | - | 850 W/m² | - |
| 1788026901 | 33.33° C | 54% | 1019.8 hPa | 0 mm | - | 856 W/m² | - |
| 1788026597 | 33.89° C | 55% | 1019.9 hPa | 0 mm | - | 858 W/m² | - |
| 1788026297 | 33.89° C | 55% | 1019.9 hPa | 0 mm | - | 861 W/m² | - |
| 1788025992 | 32.78° C | 56% | 1020 hPa | 0 mm | - | 860 W/m² | - |
| 1788025691 | 32.78° C | 58% | 1020 hPa | 0 mm | - | 863 W/m² | - |
| 1788025390 | 32.78° C | 61% | 1020.1 hPa | 0 mm | - | 861 W/m² | - |
| 1788025086 | 32.22° C | 59% | 1020.1 hPa | 0 mm | - | 863 W/m² | - |
| 1788024780 | 32.78° C | 63% | 1020.1 hPa | 0 mm | - | 864 W/m² | - |
| 1788024476 | 33.89° C | 60% | 1020.1 hPa | 0 mm | - | 862 W/m² | - |
| 1788024175 | 33.33° C | 55% | 1020.3 hPa | 0 mm | - | 857 W/m² | - |
| 1788023871 | 32.22° C | 63% | 1020.5 hPa | 0 mm | - | 857 W/m² | - |
| 1788023566 | 32.78° C | 63% | 1020.5 hPa | 0 mm | - | 854 W/m² | - |
| 1788023262 | 32.78° C | 60% | 1020.4 hPa | 0 mm | - | 851 W/m² | - |
* Rain latest hour (hover to see other rain measurements)
** Current wind speed in m/s (hover to see current wind gust speed)